To NAV CANADA Home Page Login to a new session Search on AWWS site Feedback and Comments Disclaimer Vers la page française équivalente Tips FAQ What's new on the site To the Forecasts and Observations / NOTAM section To "File a Flight Plan" website Publications and other links Update of the User's profile FIC Telephone Numbers My Weather Data Folder Route Weather Data Regional Weather Data Local Weather Data To the Forecasts and Observations / NOTAM section
Request Generated 02/23/2017 at 20:45:53 UTC . Weather information available at that time is displayed.

METAR/TAF

STONY RAPIDS/SK    (show WxCam)

METAR CYSF 232000Z AUTO 07005KT 040V100 9SM OVC080 M17/M22 A3021 RMK
SLP261=
METAR CYSF 231900Z AUTO 08005KT 040V110 9SM OVC080 M18/M23 A3022 RMK
SLP265=
METAR CYSF 231800Z AUTO 07006KT 9SM CLR M19/M24 A3021 RMK SLP263=

TAF CYSF 231738Z 2318/2406 08006KT P6SM BKN100 TEMPO 2318/2406 4SM
-SN BKN080
RMK FCST BASED ON AUTO OBS. NXT FCST BY 240000Z=
Your time UTC time
Weather data provided by Environment Canada and NAV CANADA